createdAt,value
2023-02-11T00:00:33.972Z,74.08
2023-02-11T00:01:36.749Z,73.12
2023-02-11T00:02:39.102Z,75.80
2023-02-11T00:03:41.490Z,76.23
2023-02-11T00:04:43.863Z,75.22
2023-02-11T00:05:46.194Z,73.00
2023-02-11T00:06:48.574Z,75.23
2023-02-11T00:07:50.957Z,75.17
2023-02-11T00:08:53.521Z,76.35
2023-02-11T00:09:56.102Z,74.05
2023-02-11T00:10:58.597Z,73.65
2023-02-11T00:12:00.976Z,74.00
2023-02-11T00:13:03.366Z,73.12
2023-02-11T00:14:08.070Z,72.45
2023-02-11T00:15:10.741Z,72.27
2023-02-11T00:16:18.843Z,72.30
2023-02-11T00:17:21.394Z,71.12
2023-02-11T00:18:23.735Z,70.40
2023-02-11T00:19:26.082Z,71.67
2023-02-11T00:20:28.432Z,73.93
2023-02-11T00:21:30.851Z,78.67
2023-02-11T00:22:33.196Z,82.02
2023-02-11T00:23:36.394Z,87.42
2023-02-11T00:24:38.778Z,93.13
2023-02-11T00:25:42.615Z,99.73
2023-02-11T00:26:45.015Z,97.92
2023-02-11T00:27:47.404Z,95.57
2023-02-11T00:28:51.735Z,97.27
2023-02-11T00:29:54.128Z,95.97
2023-02-11T00:30:57.683Z,97.37
2023-02-11T00:32:05.260Z,95.57
2023-02-11T00:33:07.712Z,91.48
2023-02-11T00:34:10.099Z,88.68
2023-02-11T00:35:12.615Z,87.40
2023-02-11T00:36:17.605Z,87.00
2023-02-11T00:37:19.950Z,84.75
2023-02-11T00:38:22.314Z,85.37
2023-02-11T00:39:25.183Z,83.93
2023-02-11T00:40:27.812Z,77.27
2023-02-11T00:41:30.654Z,77.67
2023-02-11T00:42:33.139Z,77.47
2023-02-11T00:43:35.896Z,78.07
2023-02-11T00:44:40.574Z,76.57
2023-02-11T00:45:42.964Z,76.72
2023-02-11T00:46:45.444Z,76.50
2023-02-11T00:47:48.039Z,76.57
2023-02-11T00:48:51.985Z,75.68
2023-02-11T00:49:54.366Z,77.90
2023-02-11T00:50:56.849Z,76.07
2023-02-11T00:51:59.260Z,75.63
2023-02-11T00:53:01.633Z,74.57
2023-02-11T00:54:04.609Z,76.75
2023-02-11T00:55:07.772Z,76.97
2023-02-11T00:56:10.241Z,77.42
2023-02-11T00:57:12.677Z,77.28
2023-02-11T00:58:15.045Z,76.93
2023-02-11T00:59:58.348Z,75.28
2023-02-11T01:01:00.827Z,76.60
2023-02-11T01:02:03.448Z,75.68
2023-02-11T01:03:06.344Z,74.45
2023-02-11T01:04:08.701Z,71.93
2023-02-11T01:05:11.110Z,69.92
2023-02-11T01:06:14.010Z,69.38
2023-02-11T01:07:16.390Z,68.93
2023-02-11T01:08:18.896Z,69.62
2023-02-11T01:09:21.285Z,68.27
2023-02-11T01:10:23.632Z,68.40
2023-02-11T01:11:26.276Z,66.08
2023-02-11T01:12:28.613Z,67.32
2023-02-11T01:13:33.290Z,67.02
2023-02-11T01:14:35.661Z,66.55
2023-02-11T01:15:38.141Z,67.83
2023-02-11T01:16:40.492Z,67.65
2023-02-11T01:17:42.992Z,65.97
2023-02-11T01:18:46.082Z,65.40
2023-02-11T01:19:48.694Z,65.60
2023-02-11T01:20:52.332Z,64.73
2023-02-11T01:21:54.652Z,65.07
2023-02-11T01:22:59.355Z,63.97
2023-02-11T01:24:01.753Z,64.02
2023-02-11T01:25:04.340Z,63.23
2023-02-11T01:26:06.802Z,65.23
2023-02-11T01:27:09.117Z,64.82
2023-02-11T01:28:18.982Z,64.92
2023-02-11T01:29:21.563Z,64.05
2023-02-11T01:30:23.942Z,62.05
2023-02-11T01:31:26.377Z,66.50
2023-02-11T01:32:28.740Z,68.55
2023-02-11T01:33:33.407Z,75.70
2023-02-11T01:34:35.814Z,82.05
2023-02-11T01:35:39.595Z,85.23
2023-02-11T01:36:42.120Z,86.37
2023-02-11T01:37:44.641Z,85.38
2023-02-11T01:38:46.976Z,84.93
2023-02-11T01:39:49.325Z,83.22
2023-02-11T01:40:57.483Z,82.23
2023-02-11T01:42:00.126Z,79.82
2023-02-11T01:43:02.456Z,79.88
2023-02-11T01:44:27.805Z,81.48
2023-02-11T01:46:05.511Z,81.37
2023-02-11T01:47:08.112Z,79.20
2023-02-11T01:48:14.489Z,76.55
2023-02-11T01:49:27.975Z,73.42
2023-02-11T01:50:31.266Z,72.63
2023-02-11T01:51:42.130Z,69.12
2023-02-11T01:52:47.245Z,69.55
2023-02-11T01:54:09.263Z,66.10
2023-02-11T01:55:32.233Z,66.72
2023-02-11T01:56:56.832Z,66.18
2023-02-11T01:58:04.827Z,66.30
2023-02-11T01:59:15.769Z,67.45
2023-02-11T02:01:32.065Z,68.08
2023-02-11T02:02:55.797Z,69.22
2023-02-11T02:04:01.888Z,67.07
2023-02-11T02:05:30.841Z,66.43
2023-02-11T02:06:38.282Z,66.70
2023-02-11T02:07:52.906Z,66.88
2023-02-11T02:09:20.549Z,67.82
2023-02-11T02:10:26.279Z,68.85
2023-02-11T02:11:28.643Z,69.42
2023-02-11T02:12:31.041Z,68.58
2023-02-11T02:13:34.973Z,68.27
2023-02-11T02:14:40.936Z,66.52
2023-02-11T02:15:54.631Z,66.80
2023-02-11T02:16:56.979Z,62.05
2023-02-11T02:18:09.279Z,61.88
2023-02-11T02:19:39.265Z,61.87
2023-02-11T02:21:05.593Z,63.13
2023-02-11T02:22:38.569Z,63.37
2023-02-11T02:23:44.113Z,61.42
2023-02-11T02:25:04.616Z,62.88
2023-02-11T02:26:29.968Z,61.85
2023-02-11T02:27:38.374Z,62.63
2023-02-11T02:28:43.435Z,63.03
2023-02-11T02:30:07.325Z,63.63
2023-02-11T02:31:21.148Z,63.90
2023-02-11T02:32:48.302Z,63.72
2023-02-11T02:33:54.484Z,64.28
2023-02-11T02:35:34.125Z,64.13
2023-02-11T02:36:49.797Z,63.73
2023-02-11T02:38:00.281Z,62.60
2023-02-11T02:39:26.824Z,63.87
2023-02-11T02:40:37.200Z,65.13
2023-02-11T02:41:40.277Z,63.58
2023-02-11T02:42:44.157Z,63.43
2023-02-11T02:43:49.961Z,63.73
2023-02-11T02:44:53.526Z,64.03
2023-02-11T02:45:56.066Z,61.70
2023-02-11T02:46:58.504Z,62.20
2023-02-11T02:48:00.900Z,62.58
2023-02-11T02:49:04.170Z,61.30
2023-02-11T02:50:09.255Z,61.32
2023-02-11T02:51:42.873Z,61.35
2023-02-11T02:52:50.673Z,61.98
2023-02-11T02:54:21.102Z,60.87
2023-02-11T02:55:41.274Z,62.53
2023-02-11T02:57:20.259Z,61.52
2023-02-11T02:58:22.534Z,61.97
2023-02-11T02:59:36.682Z,61.12
2023-02-11T03:00:51.306Z,59.90
2023-02-11T03:02:17.516Z,60.32
2023-02-11T03:03:31.797Z,59.92
2023-02-11T03:04:54.952Z,61.45
2023-02-11T03:05:59.933Z,60.77
2023-02-11T03:07:19.937Z,60.73
2023-02-11T03:08:35.626Z,61.25
2023-02-11T03:09:49.767Z,61.17
2023-02-11T03:10:54.762Z,61.42
2023-02-11T03:11:57.341Z,60.93
2023-02-11T03:13:01.368Z,62.47
2023-02-11T03:14:06.374Z,62.02
2023-02-11T03:15:09.349Z,61.07
2023-02-11T03:16:15.796Z,61.67
2023-02-11T03:17:19.166Z,61.07
2023-02-11T03:18:25.744Z,62.67
2023-02-11T03:19:37.649Z,63.80
2023-02-11T03:20:42.581Z,63.30
2023-02-11T03:21:47.869Z,63.52
2023-02-11T03:23:15.320Z,63.80
2023-02-11T03:24:40.216Z,64.38
2023-02-11T03:25:47.239Z,64.25
2023-02-11T03:26:55.404Z,64.90
2023-02-11T03:28:10.329Z,65.37
2023-02-11T03:29:40.465Z,65.17
2023-02-11T03:31:07.603Z,64.17
2023-02-11T03:32:16.401Z,64.60
2023-02-11T03:33:29.675Z,64.20
2023-02-11T03:34:54.843Z,63.48
2023-02-11T03:36:02.315Z,63.37
2023-02-11T03:37:16.833Z,62.17
2023-02-11T03:38:28.236Z,63.18
2023-02-11T03:39:40.678Z,64.55
2023-02-11T03:40:45.767Z,63.20
2023-02-11T03:41:50.234Z,63.08
2023-02-11T03:43:03.340Z,62.97
2023-02-11T03:44:07.270Z,62.98
2023-02-11T03:45:12.621Z,61.70
2023-02-11T03:46:18.644Z,63.10
2023-02-11T03:47:26.718Z,61.75
2023-02-11T03:48:35.555Z,62.32
2023-02-11T03:49:40.078Z,64.18
2023-02-11T03:50:44.912Z,62.97
2023-02-11T03:51:51.110Z,62.58
2023-02-11T03:52:55.226Z,62.15
2023-02-11T03:54:00.615Z,63.18
2023-02-11T03:55:09.307Z,61.98
2023-02-11T03:56:17.399Z,62.23
2023-02-11T03:57:19.794Z,63.85
2023-02-11T03:58:22.394Z,62.17
2023-02-11T03:59:25.707Z,61.32
2023-02-11T04:00:36.741Z,63.45
2023-02-11T04:01:39.082Z,62.35
2023-02-11T04:02:42.116Z,61.58
2023-02-11T04:03:44.510Z,63.23
2023-02-11T04:04:47.382Z,62.80
2023-02-11T04:05:50.119Z,63.30
2023-02-11T04:06:52.763Z,63.22
2023-02-11T04:07:55.140Z,62.15
2023-02-11T04:08:57.633Z,63.53
2023-02-11T04:10:00.024Z,63.17
2023-02-11T04:11:02.364Z,62.55
2023-02-11T04:12:04.917Z,62.07
2023-02-11T04:13:07.262Z,61.98
2023-02-11T04:14:09.641Z,61.48
2023-02-11T04:15:12.080Z,62.80
2023-02-11T04:16:14.533Z,62.70
2023-02-11T04:17:16.999Z,64.52
2023-02-11T04:18:19.394Z,63.75
2023-02-11T04:19:21.765Z,65.38
2023-02-11T04:20:24.127Z,65.03
2023-02-11T04:21:26.542Z,65.77
2023-02-11T04:22:28.891Z,65.30
2023-02-11T04:23:31.223Z,66.20
2023-02-11T04:24:34.066Z,65.75
2023-02-11T04:25:36.711Z,66.05
2023-02-11T04:26:39.177Z,65.88
2023-02-11T04:27:41.524Z,67.10
2023-02-11T04:28:43.841Z,65.55
2023-02-11T04:29:46.176Z,65.82
2023-02-11T04:30:50.689Z,65.23
2023-02-11T04:31:53.168Z,64.67
2023-02-11T04:32:55.545Z,65.47
2023-02-11T04:33:57.888Z,64.23
2023-02-11T04:35:00.231Z,62.40
2023-02-11T04:36:02.673Z,64.00
2023-02-11T04:37:05.489Z,63.02
2023-02-11T04:38:07.909Z,63.07
2023-02-11T04:39:10.313Z,62.10
2023-02-11T04:40:13.206Z,62.43
2023-02-11T04:41:15.657Z,62.62
2023-02-11T04:42:18.038Z,62.95
2023-02-11T04:43:20.444Z,62.03
2023-02-11T04:44:22.799Z,61.13
2023-02-11T04:45:25.137Z,61.68
2023-02-11T04:46:27.568Z,62.77
2023-02-11T04:47:29.951Z,62.30
2023-02-11T04:48:32.276Z,62.73
2023-02-11T04:49:34.716Z,62.87
2023-02-11T04:50:37.078Z,63.30
2023-02-11T04:51:39.491Z,64.17
2023-02-11T04:52:41.868Z,63.40
2023-02-11T04:53:44.239Z,63.60
2023-02-11T04:54:46.566Z,64.42
2023-02-11T04:55:50.798Z,65.33
2023-02-11T04:56:53.500Z,65.80
2023-02-11T04:57:55.834Z,64.20
2023-02-11T04:58:58.319Z,67.85
2023-02-11T05:00:00.697Z,69.55
2023-02-11T05:01:07.934Z,71.25
2023-02-11T05:02:10.356Z,70.58
2023-02-11T05:03:13.378Z,74.85
2023-02-11T05:04:16.351Z,74.35
2023-02-11T05:05:18.767Z,74.73
2023-02-11T05:06:21.176Z,73.47
2023-02-11T05:07:23.692Z,73.57
2023-02-11T05:08:26.067Z,74.10
2023-02-11T05:09:28.533Z,72.25
2023-02-11T05:10:30.854Z,71.12
2023-02-11T05:11:33.380Z,70.78
2023-02-11T05:12:35.731Z,70.55
2023-02-11T05:13:38.108Z,68.85
2023-02-11T05:14:40.632Z,68.05
2023-02-11T05:15:43.014Z,66.18
2023-02-11T05:16:45.443Z,66.37
2023-02-11T05:17:47.866Z,66.35
2023-02-11T05:18:52.456Z,67.00
2023-02-11T05:19:55.038Z,69.17
2023-02-11T05:20:57.705Z,68.97
2023-02-11T05:22:03.181Z,73.90
2023-02-11T05:23:06.015Z,74.25
2023-02-11T05:24:08.641Z,77.35
2023-02-11T05:25:11.122Z,79.78
2023-02-11T05:26:13.827Z,78.45
2023-02-11T05:27:16.305Z,80.63
2023-02-11T05:28:18.774Z,80.33
2023-02-11T05:29:21.142Z,82.15
2023-02-11T05:30:23.479Z,83.53
2023-02-11T05:31:25.993Z,83.32
2023-02-11T05:32:28.374Z,84.35
2023-02-11T05:33:31.017Z,83.88
2023-02-11T05:34:33.375Z,87.05
2023-02-11T05:35:35.754Z,86.05
2023-02-11T05:36:38.130Z,85.12
2023-02-11T05:37:40.524Z,85.70
2023-02-11T05:38:43.485Z,84.58
2023-02-11T05:39:45.900Z,83.62
2023-02-11T05:40:48.214Z,83.23
2023-02-11T05:41:50.646Z,84.38
2023-02-11T05:42:53.019Z,83.12
2023-02-11T05:43:55.427Z,83.50
2023-02-11T05:44:58.020Z,82.25
2023-02-11T05:46:00.452Z,84.23
2023-02-11T05:47:02.816Z,84.50
2023-02-11T05:48:05.423Z,81.65
2023-02-11T05:49:07.799Z,83.75
2023-02-11T05:50:10.223Z,83.68
2023-02-11T05:51:12.557Z,82.75
2023-02-11T05:52:14.959Z,79.82
2023-02-11T05:53:17.333Z,80.12
2023-02-11T05:54:19.974Z,80.25
2023-02-11T05:55:22.376Z,78.90
2023-02-11T05:56:24.754Z,77.35
2023-02-11T05:57:27.146Z,77.08
2023-02-11T05:58:29.569Z,77.32
2023-02-11T05:59:31.957Z,74.53
2023-02-11T06:00:35.051Z,73.98
2023-02-11T06:01:37.438Z,75.17
2023-02-11T06:02:40.327Z,75.60
2023-02-11T06:03:42.842Z,76.32
2023-02-11T06:04:45.438Z,76.92
2023-02-11T06:05:47.992Z,75.07
2023-02-11T06:06:50.453Z,73.75
2023-02-11T06:07:53.318Z,73.92
2023-02-11T06:08:56.481Z,72.80
2023-02-11T06:09:59.572Z,72.97
2023-02-11T06:11:01.944Z,71.70
2023-02-11T06:12:04.517Z,72.02
2023-02-11T06:13:06.901Z,71.10
2023-02-11T06:14:10.009Z,71.98
2023-02-11T06:15:12.409Z,71.90
2023-02-11T06:16:14.819Z,71.10
2023-02-11T06:17:17.234Z,69.73
2023-02-11T06:18:19.616Z,67.73
2023-02-11T06:19:22.017Z,66.50
2023-02-11T06:20:24.439Z,65.72
2023-02-11T06:21:42.410Z,65.33
2023-02-11T06:22:46.399Z,64.38
2023-02-11T06:23:49.274Z,65.58
2023-02-11T06:25:00.897Z,65.80
2023-02-11T06:26:08.961Z,65.35
2023-02-11T06:27:11.384Z,64.85
2023-02-11T06:28:13.818Z,63.80
2023-02-11T06:29:16.541Z,60.18
2023-02-11T06:30:19.025Z,61.22
2023-02-11T06:31:21.812Z,60.88
2023-02-11T06:32:42.740Z,61.15
2023-02-11T06:33:46.141Z,61.95
2023-02-11T06:34:48.470Z,62.07
2023-02-11T06:35:51.154Z,62.05
2023-02-11T06:36:53.719Z,62.92
2023-02-11T06:37:56.119Z,60.58
2023-02-11T06:38:58.437Z,62.77
2023-02-11T06:40:01.010Z,63.37
2023-02-11T06:41:03.417Z,63.30
2023-02-11T06:42:07.911Z,64.93
2023-02-11T06:43:10.379Z,65.13
2023-02-11T06:44:12.765Z,64.78
2023-02-11T06:45:15.113Z,63.87
2023-02-11T06:46:17.577Z,62.87
2023-02-11T06:47:19.991Z,62.53
2023-02-11T06:48:24.029Z,62.58
2023-02-11T06:49:26.385Z,63.02
2023-02-11T06:50:28.719Z,64.42
2023-02-11T06:51:31.169Z,62.98
2023-02-11T06:52:34.194Z,66.57
2023-02-11T06:53:38.681Z,69.47
2023-02-11T06:54:41.029Z,70.93
2023-02-11T06:55:43.471Z,72.35
2023-02-11T06:56:45.821Z,72.20
2023-02-11T06:57:48.156Z,73.92
2023-02-11T06:58:57.130Z,69.48
2023-02-11T06:59:59.527Z,67.00
2023-02-11T07:01:08.972Z,65.70
2023-02-11T07:02:11.431Z,66.82
2023-02-11T07:03:13.867Z,69.12
2023-02-11T07:04:16.313Z,68.23
2023-02-11T07:05:18.810Z,66.25
2023-02-11T07:06:23.148Z,63.63
2023-02-11T07:07:25.543Z,62.18
2023-02-11T07:08:27.915Z,62.03
2023-02-11T07:09:30.454Z,63.78
2023-02-11T07:10:34.197Z,62.78
2023-02-11T07:11:36.608Z,64.13
2023-02-11T07:12:38.983Z,64.15
2023-02-11T07:13:41.501Z,64.28
2023-02-11T07:14:43.894Z,62.78
2023-02-11T07:15:46.311Z,62.25
2023-02-11T07:16:48.699Z,60.68
2023-02-11T07:17:51.082Z,60.55
2023-02-11T07:18:53.901Z,61.12
2023-02-11T07:19:56.302Z,58.62
2023-02-11T07:20:58.809Z,58.30
2023-02-11T07:22:01.139Z,56.02
2023-02-11T07:23:03.466Z,56.88
2023-02-11T07:24:11.111Z,54.93
2023-02-11T07:25:13.933Z,56.25
2023-02-11T07:26:19.853Z,55.78
2023-02-11T07:27:22.259Z,56.60
2023-02-11T07:28:24.815Z,56.17
2023-02-11T07:29:27.330Z,54.97
2023-02-11T07:30:29.679Z,55.92
2023-02-11T07:31:32.523Z,57.65
2023-02-11T07:32:34.978Z,57.40
2023-02-11T07:33:37.990Z,59.27
2023-02-11T07:34:40.490Z,70.03
2023-02-11T07:35:42.844Z,81.65
2023-02-11T07:36:45.258Z,85.65
2023-02-11T07:37:47.598Z,82.98
2023-02-11T07:38:50.240Z,77.92
2023-02-11T07:39:52.643Z,69.37
2023-02-11T07:40:54.966Z,66.23
2023-02-11T07:41:57.391Z,65.55
2023-02-11T07:43:01.215Z,61.85
2023-02-11T07:44:03.712Z,59.77
2023-02-11T07:45:06.489Z,58.72
2023-02-11T07:46:11.601Z,56.95
2023-02-11T07:47:13.990Z,57.68
2023-02-11T07:48:16.331Z,58.27
2023-02-11T07:49:18.864Z,56.18
2023-02-11T07:50:21.266Z,56.55
2023-02-11T07:51:28.814Z,55.83
2023-02-11T07:52:31.446Z,56.17
2023-02-11T07:53:33.782Z,57.25
2023-02-11T07:54:36.213Z,56.63
2023-02-11T07:55:38.550Z,56.63
2023-02-11T07:56:40.937Z,56.15
2023-02-11T07:57:43.306Z,54.98
2023-02-11T07:58:48.342Z,54.28
2023-02-11T07:59:50.805Z,55.57
2023-02-11T08:00:53.248Z,56.15
2023-02-11T08:01:55.664Z,56.12
2023-02-11T08:02:58.358Z,55.30
2023-02-11T08:04:02.642Z,56.77
2023-02-11T08:05:05.221Z,55.75
2023-02-11T08:06:13.223Z,56.60
2023-02-11T08:07:19.300Z,55.87
2023-02-11T08:08:21.672Z,55.13
2023-02-11T08:09:24.032Z,56.48
2023-02-11T08:10:26.349Z,57.02
2023-02-11T08:11:29.006Z,56.45
2023-02-11T08:12:31.356Z,56.18
2023-02-11T08:13:34.067Z,55.88
2023-02-11T08:14:36.553Z,55.62
2023-02-11T08:15:38.884Z,57.40
2023-02-11T08:16:41.902Z,59.62
2023-02-11T08:17:44.318Z,59.93
2023-02-11T08:18:46.721Z,58.15
2023-02-11T08:19:49.100Z,56.25
2023-02-11T08:20:51.808Z,55.93
2023-02-11T08:21:57.436Z,55.20
2023-02-11T08:22:59.834Z,55.37
2023-02-11T08:24:03.537Z,55.42
2023-02-11T08:25:06.358Z,54.28
2023-02-11T08:26:15.977Z,54.42
2023-02-11T08:27:18.358Z,53.90
2023-02-11T08:28:20.773Z,54.52
2023-02-11T08:29:23.195Z,53.70
2023-02-11T08:30:27.210Z,53.62
2023-02-11T08:31:38.583Z,54.25
2023-02-11T08:32:41.057Z,53.67
2023-02-11T08:33:43.637Z,54.23
2023-02-11T08:34:46.175Z,53.95
2023-02-11T08:35:48.501Z,54.57
2023-02-11T08:36:50.883Z,53.88
2023-02-11T08:37:53.632Z,53.88
2023-02-11T08:39:08.513Z,54.50
2023-02-11T08:40:14.709Z,53.70
2023-02-11T08:41:18.139Z,53.25
2023-02-11T08:42:20.528Z,54.52
2023-02-11T08:43:23.716Z,54.02
2023-02-11T08:44:26.258Z,53.70
2023-02-11T08:45:28.686Z,53.55
2023-02-11T08:46:31.164Z,52.73
2023-02-11T08:47:33.565Z,55.05
2023-02-11T08:48:36.034Z,55.80
2023-02-11T08:49:38.594Z,55.87
2023-02-11T08:50:40.958Z,54.45
2023-02-11T08:51:44.027Z,55.63
2023-02-11T08:52:46.388Z,55.53
2023-02-11T08:53:48.966Z,55.60
2023-02-11T08:54:51.323Z,55.10
2023-02-11T08:55:55.023Z,54.83
2023-02-11T08:56:57.463Z,53.88
2023-02-11T08:57:59.855Z,55.30
2023-02-11T08:59:02.367Z,55.62
2023-02-11T09:00:05.697Z,53.78
2023-02-11T09:01:17.756Z,54.83
2023-02-11T09:02:20.134Z,54.42
2023-02-11T09:03:22.532Z,55.30
2023-02-11T09:04:25.084Z,55.28
2023-02-11T09:05:27.756Z,55.85
2023-02-11T09:06:30.293Z,55.48
2023-02-11T09:07:32.622Z,55.70
2023-02-11T09:08:40.067Z,55.45
2023-02-11T09:09:42.446Z,54.97
2023-02-11T09:10:44.927Z,55.50
2023-02-11T09:11:48.259Z,54.60
2023-02-11T09:12:50.773Z,54.05
2023-02-11T09:13:54.413Z,55.00
2023-02-11T09:14:57.058Z,54.30
2023-02-11T09:16:00.329Z,55.00
2023-02-11T09:17:02.861Z,54.62
2023-02-11T09:18:05.637Z,53.93
2023-02-11T09:19:09.727Z,54.53
2023-02-11T09:20:12.229Z,55.37
2023-02-11T09:21:16.672Z,53.25
2023-02-11T09:22:19.032Z,54.58
2023-02-11T09:23:21.390Z,53.78
2023-02-11T09:24:23.756Z,53.88
2023-02-11T09:25:26.857Z,54.15
2023-02-11T09:26:33.796Z,53.20
2023-02-11T09:27:36.102Z,53.15
2023-02-11T09:28:38.466Z,53.22
2023-02-11T09:29:40.914Z,53.15
2023-02-11T09:30:43.400Z,53.70
2023-02-11T09:31:46.007Z,52.22
2023-02-11T09:32:48.568Z,53.55
2023-02-11T09:33:53.587Z,53.45
2023-02-11T09:34:55.926Z,53.38
2023-02-11T09:36:02.073Z,53.33
2023-02-11T09:37:04.574Z,54.35
2023-02-11T09:38:07.229Z,54.07
2023-02-11T09:39:13.693Z,52.48
2023-02-11T09:40:17.234Z,54.40
2023-02-11T09:41:25.396Z,54.75
2023-02-11T09:43:03.791Z,54.58
2023-02-11T09:44:09.216Z,54.65
2023-02-11T09:45:24.607Z,55.38
2023-02-11T09:46:31.639Z,54.37
2023-02-11T09:47:45.955Z,54.50
2023-02-11T09:48:49.671Z,54.18
2023-02-11T09:50:00.404Z,53.58
2023-02-11T09:51:04.476Z,54.58
2023-02-11T09:52:25.609Z,55.53
2023-02-11T09:53:31.569Z,53.55
2023-02-11T09:54:58.029Z,55.55
2023-02-11T09:56:02.646Z,55.73
2023-02-11T09:57:06.331Z,56.67
2023-02-11T09:58:25.337Z,57.15
2023-02-11T09:59:27.773Z,56.65
2023-02-11T10:00:51.808Z,56.60
2023-02-11T10:02:18.356Z,56.62
2023-02-11T10:03:51.005Z,60.28
2023-02-11T10:04:55.977Z,59.00
2023-02-11T10:06:10.818Z,58.32
2023-02-11T10:07:37.793Z,54.90
2023-02-11T10:08:59.651Z,54.50
2023-02-11T10:10:10.957Z,53.98
2023-02-11T10:11:50.390Z,54.15
2023-02-11T10:13:19.005Z,53.13
2023-02-11T10:14:45.660Z,52.05
2023-02-11T10:16:15.600Z,52.33
2023-02-11T10:17:39.066Z,52.42
2023-02-11T10:19:14.105Z,49.28
2023-02-11T10:20:32.549Z,50.02
2023-02-11T10:21:47.847Z,49.08
2023-02-11T10:23:21.370Z,49.93
2023-02-11T10:24:24.256Z,52.03
2023-02-11T10:25:30.297Z,50.73
2023-02-11T10:26:34.101Z,49.20
2023-02-11T10:27:36.496Z,48.40
2023-02-11T10:28:40.629Z,47.75
2023-02-11T10:30:07.164Z,48.03
2023-02-11T10:31:26.338Z,46.45
2023-02-11T10:32:40.284Z,47.37
2023-02-11T10:33:47.344Z,46.52
2023-02-11T10:34:50.743Z,46.63
2023-02-11T10:35:53.156Z,46.08
2023-02-11T10:36:57.998Z,45.52
2023-02-11T10:38:00.906Z,43.47
2023-02-11T10:39:19.234Z,43.78
2023-02-11T10:40:25.235Z,42.35
2023-02-11T10:41:32.897Z,42.78
2023-02-11T10:42:36.114Z,42.38
2023-02-11T10:43:38.783Z,42.98
2023-02-11T10:44:53.688Z,43.05
2023-02-11T10:45:57.041Z,42.23
2023-02-11T10:47:03.508Z,42.68
2023-02-11T10:48:07.325Z,42.23
2023-02-11T10:49:09.664Z,42.53
2023-02-11T10:50:26.117Z,42.62
2023-02-11T10:51:31.599Z,42.55
2023-02-11T10:52:33.964Z,41.05
2023-02-11T10:53:36.384Z,40.82
2023-02-11T10:54:38.711Z,41.33
2023-02-11T10:55:58.551Z,42.25
2023-02-11T10:57:01.001Z,43.30
2023-02-11T10:58:04.838Z,44.58
2023-02-11T10:59:28.039Z,44.83
2023-02-11T11:00:43.170Z,43.57
2023-02-11T11:01:50.160Z,44.08
2023-02-11T11:02:56.392Z,44.35
2023-02-11T11:04:00.048Z,44.18
2023-02-11T11:05:22.677Z,44.05
2023-02-11T11:06:32.747Z,43.55
2023-02-11T11:07:35.325Z,44.40
2023-02-11T11:08:49.009Z,43.13
2023-02-11T11:10:33.124Z,42.77
2023-02-11T11:11:52.372Z,43.72
2023-02-11T11:12:54.754Z,45.23
2023-02-11T11:13:59.948Z,44.78
2023-02-11T11:15:16.654Z,41.07
2023-02-11T11:16:24.800Z,41.97
2023-02-11T11:17:29.418Z,42.40
2023-02-11T11:18:31.899Z,42.05
2023-02-11T11:19:34.535Z,42.05
2023-02-11T11:20:38.043Z,41.27
2023-02-11T11:21:56.829Z,40.90
2023-02-11T11:23:15.756Z,40.02
2023-02-11T11:24:34.652Z,42.18
2023-02-11T11:25:40.081Z,41.33
2023-02-11T11:26:45.554Z,41.72
2023-02-11T11:27:53.308Z,41.00
2023-02-11T11:29:01.953Z,41.47
2023-02-11T11:30:04.662Z,41.98
2023-02-11T11:31:15.139Z,41.72
2023-02-11T11:32:26.129Z,42.03
2023-02-11T11:33:31.363Z,41.72
2023-02-11T11:34:37.297Z,40.67
2023-02-11T11:35:40.989Z,41.27
2023-02-11T11:36:44.230Z,42.27
2023-02-11T11:37:54.258Z,41.18
2023-02-11T11:38:59.073Z,42.17
2023-02-11T11:40:43.198Z,41.28
2023-02-11T11:41:54.777Z,40.88
2023-02-11T11:43:14.927Z,41.38
2023-02-11T11:44:26.713Z,39.70
2023-02-11T11:45:29.035Z,40.97
2023-02-11T11:46:33.405Z,39.77
2023-02-11T11:47:48.800Z,39.60
2023-02-11T11:48:54.685Z,40.82
2023-02-11T11:50:15.823Z,39.97
2023-02-11T11:51:18.280Z,39.18
2023-02-11T11:52:46.228Z,39.35
2023-02-11T11:53:57.580Z,40.23
2023-02-11T11:55:07.869Z,40.65
2023-02-11T11:56:17.338Z,40.92
2023-02-11T11:57:24.610Z,40.82
2023-02-11T11:58:29.688Z,40.22
2023-02-11T11:59:32.157Z,40.65
2023-02-11T12:01:06.781Z,40.35
2023-02-11T12:02:36.349Z,41.00
2023-02-11T12:03:56.924Z,40.42
2023-02-11T12:05:13.441Z,40.98
2023-02-11T12:06:30.549Z,41.33
2023-02-11T12:08:04.620Z,40.83
2023-02-11T12:09:17.446Z,40.57
2023-02-11T12:10:31.513Z,39.93
2023-02-11T12:11:45.488Z,40.83
2023-02-11T12:13:00.027Z,39.35
2023-02-11T12:14:28.462Z,40.97
2023-02-11T12:15:48.821Z,41.45
2023-02-11T12:17:05.277Z,41.30
2023-02-11T12:18:26.086Z,39.63
2023-02-11T12:20:14.215Z,38.83
2023-02-11T12:21:37.838Z,39.35
2023-02-11T12:22:54.918Z,38.92
2023-02-11T12:24:08.496Z,39.03
2023-02-11T12:25:27.521Z,38.18
2023-02-11T12:26:38.712Z,38.18
2023-02-11T12:28:14.906Z,37.02
2023-02-11T12:29:44.407Z,35.73
2023-02-11T12:31:06.923Z,36.73
2023-02-11T12:32:16.171Z,36.40
2023-02-11T12:33:21.402Z,34.23
2023-02-11T12:34:42.222Z,35.90
2023-02-11T12:35:58.544Z,36.38
2023-02-11T12:37:10.648Z,35.98
2023-02-11T12:38:29.056Z,35.03
2023-02-11T12:39:47.409Z,36.23
2023-02-11T12:41:02.465Z,35.57
2023-02-11T12:43:07.524Z,34.33
2023-02-11T12:44:21.675Z,34.07
2023-02-11T12:45:33.449Z,33.62
2023-02-11T12:46:49.306Z,33.37
2023-02-11T12:48:29.756Z,33.37
2023-02-11T12:50:29.353Z,32.95
2023-02-11T12:52:01.033Z,32.52
2023-02-11T12:53:12.278Z,31.97
2023-02-11T12:54:23.231Z,32.43
2023-02-11T12:55:27.369Z,32.52
2023-02-11T12:56:38.953Z,31.92
2023-02-11T12:57:42.376Z,31.65
2023-02-11T12:58:45.886Z,32.53
2023-02-11T12:59:56.686Z,31.08
2023-02-11T13:01:06.275Z,29.95
2023-02-11T13:02:22.001Z,29.85
2023-02-11T13:03:53.099Z,28.82
2023-02-11T13:05:00.400Z,29.57
2023-02-11T13:06:07.996Z,28.75
2023-02-11T13:07:16.504Z,28.28
2023-02-11T13:08:34.604Z,29.77
2023-02-11T13:09:43.772Z,30.83
2023-02-11T13:11:03.787Z,28.52
2023-02-11T13:12:25.138Z,28.22
2023-02-11T13:13:30.688Z,27.43
2023-02-11T13:14:40.405Z,27.08
2023-02-11T13:16:09.949Z,27.87
2023-02-11T13:17:23.373Z,27.65
2023-02-11T13:18:35.516Z,28.43
2023-02-11T13:19:53.044Z,27.93
2023-02-11T13:21:10.699Z,26.67
2023-02-11T13:22:35.522Z,27.83
2023-02-11T13:24:05.499Z,27.18
2023-02-11T13:25:33.534Z,27.22
2023-02-11T13:27:10.172Z,28.22
2023-02-11T13:28:30.076Z,28.08
2023-02-11T13:30:13.352Z,26.68
2023-02-11T13:31:16.937Z,26.85
2023-02-11T13:32:19.382Z,27.13
2023-02-11T13:33:32.972Z,27.68
2023-02-11T13:34:41.181Z,27.25
2023-02-11T13:35:48.732Z,27.03
2023-02-11T13:36:55.511Z,26.45
2023-02-11T13:38:00.510Z,25.73
2023-02-11T13:39:06.211Z,25.65
2023-02-11T13:40:23.281Z,25.47
2023-02-11T13:41:41.063Z,26.67
2023-02-11T13:42:51.819Z,26.98
2023-02-11T13:44:01.524Z,27.97
2023-02-11T13:45:37.678Z,28.42
2023-02-11T13:47:01.490Z,27.58
2023-02-11T13:48:06.693Z,26.62
2023-02-11T13:49:19.470Z,25.92
2023-02-11T13:50:25.944Z,27.23
2023-02-11T13:51:41.476Z,25.23
2023-02-11T13:52:44.761Z,25.75
2023-02-11T13:53:52.570Z,27.03
2023-02-11T13:54:58.317Z,25.97
2023-02-11T13:56:12.800Z,25.58
2023-02-11T13:57:21.091Z,25.35
2023-02-11T13:58:28.933Z,25.75
2023-02-11T13:59:33.052Z,26.60
2023-02-11T14:00:35.491Z,25.22
2023-02-11T14:02:18.474Z,24.60
2023-02-11T14:03:56.372Z,25.20
2023-02-11T14:05:23.253Z,25.60
2023-02-11T14:06:47.065Z,25.60
2023-02-11T14:08:26.179Z,24.35
2023-02-11T14:09:36.346Z,25.40
2023-02-11T14:10:41.161Z,26.58
2023-02-11T14:11:49.377Z,26.00
2023-02-11T14:13:20.018Z,26.62
2023-02-11T14:14:23.941Z,25.50
2023-02-11T14:15:27.296Z,25.75
2023-02-11T14:16:38.076Z,26.42
2023-02-11T14:17:41.095Z,25.53
2023-02-11T14:18:49.204Z,25.55
2023-02-11T14:19:51.953Z,25.52
2023-02-11T14:21:13.356Z,25.12
2023-02-11T14:22:20.471Z,24.93
2023-02-11T14:23:27.400Z,24.37
2023-02-11T14:24:31.078Z,25.12
2023-02-11T14:25:33.687Z,24.25
2023-02-11T14:26:55.396Z,24.53
2023-02-11T14:28:04.901Z,23.38
2023-02-11T14:29:24.368Z,23.82
2023-02-11T14:30:48.052Z,23.62
2023-02-11T14:32:11.391Z,23.93
2023-02-11T14:33:17.347Z,22.72
2023-02-11T14:34:47.705Z,23.15
2023-02-11T14:36:14.488Z,22.23
2023-02-11T14:37:27.059Z,23.58